sensor_id;sensor_type;location;lat;lon;timestamp;pressure;altitude;pressure_sealevel;temperature;humidity
11810;BME280;5962;41.566;23.734;2024-03-23T00:51:10;95516.28;;;4.81;95.83
11810;BME280;5962;41.566;23.734;2024-03-23T00:56:04;95511.66;;;4.63;97.00
11810;BME280;5962;41.566;23.734;2024-03-23T00:58:31;95508.81;;;4.59;98.45
11810;BME280;5962;41.566;23.734;2024-03-23T01:00:57;95509.22;;;4.62;96.73
11810;BME280;5962;41.566;23.734;2024-03-23T01:03:24;95509.81;;;4.58;96.67
11810;BME280;5962;41.566;23.734;2024-03-23T01:05:50;95511.84;;;4.56;97.16
11810;BME280;5962;41.566;23.734;2024-03-23T01:08:19;95507.16;;;4.51;97.50
11810;BME280;5962;41.566;23.734;2024-03-23T01:10:54;95507.59;;;4.48;98.01
11810;BME280;5962;41.566;23.734;2024-03-23T01:13:21;95501.94;;;4.58;96.99
11810;BME280;5962;41.566;23.734;2024-03-23T01:15:48;95508.78;;;4.46;97.30
11810;BME280;5962;41.566;23.734;2024-03-23T01:18:15;95506.97;;;4.40;98.56
11810;BME280;5962;41.566;23.734;2024-03-23T01:20:41;95503.53;;;4.39;100.00
11810;BME280;5962;41.566;23.734;2024-03-23T01:23:08;95502.91;;;4.37;99.82
11810;BME280;5962;41.566;23.734;2024-03-23T01:25:36;95499.69;;;4.35;99.03
11810;BME280;5962;41.566;23.734;2024-03-23T01:28:03;95498.50;;;4.38;98.13
11810;BME280;5962;41.566;23.734;2024-03-23T01:30:29;95497.84;;;4.29;98.72
11810;BME280;5962;41.566;23.734;2024-03-23T01:32:56;95495.63;;;4.26;99.23
11810;BME280;5962;41.566;23.734;2024-03-23T01:35:22;95502.50;;;4.27;99.24
11810;BME280;5962;41.566;23.734;2024-03-23T01:37:49;95496.00;;;4.23;99.50
11810;BME280;5962;41.566;23.734;2024-03-23T01:40:17;95492.59;;;4.23;99.75
11810;BME280;5962;41.566;23.734;2024-03-23T01:42:56;95500.69;;;4.21;99.69
11810;BME280;5962;41.566;23.734;2024-03-23T01:45:22;95499.44;;;4.17;99.17
11810;BME280;5962;41.566;23.734;2024-03-23T01:47:49;95497.56;;;4.05;100.00
11810;BME280;5962;41.566;23.734;2024-03-23T01:50:16;95504.44;;;4.06;100.00
11810;BME280;5962;41.566;23.734;2024-03-23T01:52:43;95498.00;;;4.02;100.00
11810;BME280;5962;41.566;23.734;2024-03-23T01:55:10;95496.38;;;4.01;100.00
11810;BME280;5962;41.566;23.734;2024-03-23T01:57:37;95498.41;;;4.05;100.00
11810;BME280;5962;41.566;23.734;2024-03-23T02:00:06;95502.44;;;4.08;100.00
11810;BME280;5962;41.566;23.734;2024-03-23T02:02:34;95498.03;;;4.15;100.00
11810;BME280;5962;41.566;23.734;2024-03-23T02:05:00;95497.41;;;4.06;100.00
11810;BME280;5962;41.566;23.734;2024-03-23T02:07:27;95500.00;;;4.00;100.00
11810;BME280;5962;41.566;23.734;2024-03-23T02:09:53;95501.19;;;3.97;100.00
11810;BME280;5962;41.566;23.734;2024-03-23T02:12:21;95499.97;;;3.93;100.00
11810;BME280;5962;41.566;23.734;2024-03-23T02:14:47;95501.38;;;3.89;100.00
11810;BME280;5962;41.566;23.734;2024-03-23T02:17:15;95501.97;;;3.85;100.00
11810;BME280;5962;41.566;23.734;2024-03-23T02:19:41;95501.13;;;3.84;100.00
11810;BME280;5962;41.566;23.734;2024-03-23T02:22:08;95503.94;;;3.76;100.00
11810;BME280;5962;41.566;23.734;2024-03-23T02:24:37;95506.34;;;3.78;100.00
11810;BME280;5962;41.566;23.734;2024-03-23T02:27:05;95509.00;;;3.84;100.00
11810;BME280;5962;41.566;23.734;2024-03-23T02:29:30;95498.03;;;3.68;100.00
11810;BME280;5962;41.566;23.734;2024-03-23T02:31:57;95501.50;;;3.69;100.00
11810;BME280;5962;41.566;23.734;2024-03-23T02:34:24;95503.47;;;3.60;100.00
11810;BME280;5962;41.566;23.734;2024-03-23T02:36:51;95502.63;;;3.60;100.00
11810;BME280;5962;41.566;23.734;2024-03-23T02:39:17;95491.53;;;3.58;100.00
11810;BME280;5962;41.566;23.734;2024-03-23T02:41:45;95494.97;;;3.58;100.00
11810;BME280;5962;41.566;23.734;2024-03-23T02:44:13;95493.75;;;3.54;100.00
11810;BME280;5962;41.566;23.734;2024-03-23T02:46:40;95488.75;;;3.59;100.00
11810;BME280;5962;41.566;23.734;2024-03-23T02:49:06;95490.13;;;3.55;100.00
11810;BME280;5962;41.566;23.734;2024-03-23T02:51:33;95490.13;;;3.55;100.00
11810;BME280;5962;41.566;23.734;2024-03-23T02:53:59;95487.88;;;3.52;100.00
11810;BME280;5962;41.566;23.734;2024-03-23T02:56:27;95495.56;;;3.54;100.00
11810;BME280;5962;41.566;23.734;2024-03-23T02:58:54;95493.31;;;3.51;100.00
11810;BME280;5962;41.566;23.734;2024-03-23T03:01:21;95497.94;;;3.49;100.00
11810;BME280;5962;41.566;23.734;2024-03-23T03:03:47;95484.06;;;3.48;100.00
11810;BME280;5962;41.566;23.734;2024-03-23T03:06:22;95478.22;;;3.46;100.00
11810;BME280;5962;41.566;23.734;2024-03-23T03:08:49;95492.72;;;3.49;100.00
11810;BME280;5962;41.566;23.734;2024-03-23T03:11:16;95482.97;;;3.36;100.00
11810;BME280;5962;41.566;23.734;2024-03-23T03:13:42;95481.31;;;3.29;100.00
11810;BME280;5962;41.566;23.734;2024-03-23T03:16:10;95485.13;;;3.26;100.00
11810;BME280;5962;41.566;23.734;2024-03-23T03:18:37;95489.31;;;3.21;100.00
11810;BME280;5962;41.566;23.734;2024-03-23T03:21:04;95485.66;;;3.15;100.00
11810;BME280;5962;41.566;23.734;2024-03-23T03:23:31;95488.69;;;3.19;100.00
11810;BME280;5962;41.566;23.734;2024-03-23T03:25:58;95484.25;;;3.13;100.00
11810;BME280;5962;41.566;23.734;2024-03-23T03:28:24;95486.91;;;3.19;100.00
11810;BME280;5962;41.566;23.734;2024-03-23T03:30:51;95490.91;;;3.15;100.00
11810;BME280;5962;41.566;23.734;2024-03-23T03:33:19;95483.63;;;3.11;100.00
11810;BME280;5962;41.566;23.734;2024-03-23T03:35:46;95486.28;;;3.17;100.00
11810;BME280;5962;41.566;23.734;2024-03-23T03:38:12;95491.28;;;3.12;100.00
11810;BME280;5962;41.566;23.734;2024-03-23T03:40:39;95491.28;;;3.12;100.00
11810;BME280;5962;41.566;23.734;2024-03-23T03:43:05;95491.91;;;3.14;100.00
11810;BME280;5962;41.566;23.734;2024-03-23T03:45:32;95497.72;;;3.10;100.00
11810;BME280;5962;41.566;23.734;2024-03-23T03:47:58;95502.31;;;3.08;100.00
11810;BME280;5962;41.566;23.734;2024-03-23T03:50:26;95494.69;;;3.06;100.00
11810;BME280;5962;41.566;23.734;2024-03-23T03:52:52;95497.25;;;3.00;100.00
11810;BME280;5962;41.566;23.734;2024-03-23T03:55:19;95497.25;;;3.00;100.00
11810;BME280;5962;41.566;23.734;2024-03-23T03:57:45;95498.63;;;2.96;100.00
11810;BME280;5962;41.566;23.734;2024-03-23T04:00:13;95500.41;;;2.95;100.00
11810;BME280;5962;41.566;23.734;2024-03-23T04:02:39;95500.03;;;2.98;100.00
11810;BME280;5962;41.566;23.734;2024-03-23T04:05:07;95504.22;;;2.93;100.00
11810;BME280;5962;41.566;23.734;2024-03-23T04:07:35;95505.22;;;2.92;100.00
11810;BME280;5962;41.566;23.734;2024-03-23T04:10:02;95504.78;;;2.88;100.00
11810;BME280;5962;41.566;23.734;2024-03-23T04:12:32;95504.00;;;2.88;100.00
11810;BME280;5962;41.566;23.734;2024-03-23T04:14:59;95505.41;;;2.90;100.00
11810;BME280;5962;41.566;23.734;2024-03-23T04:17:26;95511.84;;;2.88;100.00
11810;BME280;5962;41.566;23.734;2024-03-23T04:19:57;95509.72;;;2.77;100.00
11810;BME280;5962;41.566;23.734;2024-03-23T04:22:23;95499.97;;;2.65;100.00
11810;BME280;5962;41.566;23.734;2024-03-23T04:24:54;95516.47;;;2.65;100.00
11810;BME280;5962;41.566;23.734;2024-03-23T04:27:21;95518.03;;;2.60;100.00
11810;BME280;5962;41.566;23.734;2024-03-23T04:29:48;95497.63;;;2.49;100.00
11810;BME280;5962;41.566;23.734;2024-03-23T04:32:15;95523.09;;;2.61;100.00
11810;BME280;5962;41.566;23.734;2024-03-23T04:34:42;95524.88;;;2.61;100.00
11810;BME280;5962;41.566;23.734;2024-03-23T04:37:09;95533.97;;;2.65;100.00
11810;BME280;5962;41.566;23.734;2024-03-23T04:39:36;95534.72;;;2.59;100.00
11810;BME280;5962;41.566;23.734;2024-03-23T04:42:05;95531.53;;;2.63;100.00
11810;BME280;5962;41.566;23.734;2024-03-23T04:44:32;95534.78;;;2.65;100.00
11810;BME280;5962;41.566;23.734;2024-03-23T04:47:00;95534.13;;;2.63;100.00
11810;BME280;5962;41.566;23.734;2024-03-23T04:49:27;95537.94;;;2.61;100.00
11810;BME280;5962;41.566;23.734;2024-03-23T04:51:53;95546.22;;;2.64;100.00
11810;BME280;5962;41.566;23.734;2024-03-23T04:54:20;95539.16;;;2.58;100.00
11810;BME280;5962;41.566;23.734;2024-03-23T04:56:47;95543.38;;;2.59;100.00
11810;BME280;5962;41.566;23.734;2024-03-23T04:59:15;95553.91;;;2.66;100.00
11810;BME280;5962;41.566;23.734;2024-03-23T05:01:41;95552.75;;;2.75;100.00
11810;BME280;5962;41.566;23.734;2024-03-23T05:04:09;95549.88;;;2.90;100.00
11810;BME280;5962;41.566;23.734;2024-03-23T05:06:35;95549.53;;;2.93;100.00
11810;BME280;5962;41.566;23.734;2024-03-23T05:09:02;95537.91;;;3.02;100.00
11810;BME280;5962;41.566;23.734;2024-03-23T05:11:31;95551.31;;;3.14;100.00
11810;BME280;5962;41.566;23.734;2024-03-23T05:13:59;95555.00;;;3.26;100.00
11810;BME280;5962;41.566;23.734;2024-03-23T05:16:26;95549.25;;;3.37;100.00
11810;BME280;5962;41.566;23.734;2024-03-23T05:18:53;95541.44;;;3.43;100.00
11810;BME280;5962;41.566;23.734;2024-03-23T05:21:20;95531.94;;;3.42;100.00
11810;BME280;5962;41.566;23.734;2024-03-23T05:23:47;95547.03;;;3.68;100.00
11810;BME280;5962;41.566;23.734;2024-03-23T05:26:13;95543.44;;;3.75;100.00
11810;BME280;5962;41.566;23.734;2024-03-23T05:28:40;95541.88;;;3.87;100.00
11810;BME280;5962;41.566;23.734;2024-03-23T05:31:06;95548.88;;;3.80;100.00
11810;BME280;5962;41.566;23.734;2024-03-23T05:33:36;95531.59;;;3.92;100.00
11810;BME280;5962;41.566;23.734;2024-03-23T05:36:04;95532.41;;;3.92;100.00
11810;BME280;5962;41.566;23.734;2024-03-23T05:38:34;95543.13;;;4.04;100.00
11810;BME280;5962;41.566;23.734;2024-03-23T05:41:00;95540.72;;;4.02;100.00
11810;BME280;5962;41.566;23.734;2024-03-23T05:43:27;95535.72;;;4.07;100.00
11810;BME280;5962;41.566;23.734;2024-03-23T05:45:54;95531.66;;;4.05;100.00
11810;BME280;5962;41.566;23.734;2024-03-23T05:48:22;95533.69;;;4.09;100.00
11810;BME280;5962;41.566;23.734;2024-03-23T05:50:49;95532.69;;;4.10;100.00
11810;BME280;5962;41.566;23.734;2024-03-23T05:53:17;95534.09;;;4.06;100.00
11810;BME280;5962;41.566;23.734;2024-03-23T05:55:44;95529.50;;;4.15;100.00
11810;BME280;5962;41.566;23.734;2024-03-23T05:58:11;95525.69;;;4.30;100.00
11810;BME280;5962;41.566;23.734;2024-03-23T06:00:37;95529.53;;;4.28;100.00
11810;BME280;5962;41.566;23.734;2024-03-23T06:03:04;95522.25;;;4.30;100.00
11810;BME280;5962;41.566;23.734;2024-03-23T06:05:30;95522.47;;;4.35;100.00
11810;BME280;5962;41.566;23.734;2024-03-23T06:07:59;95516.25;;;4.49;100.00
11810;BME280;5962;41.566;23.734;2024-03-23T06:10:25;95515.66;;;4.47;100.00
11810;BME280;5962;41.566;23.734;2024-03-23T06:12:52;95520.50;;;4.56;100.00
11810;BME280;5962;41.566;23.734;2024-03-23T06:15:18;95515.06;;;4.58;100.00
11810;BME280;5962;41.566;23.734;2024-03-23T06:17:45;95517.69;;;4.70;100.00
11810;BME280;5962;41.566;23.734;2024-03-23T06:20:12;95514.88;;;4.65;100.00
11810;BME280;5962;41.566;23.734;2024-03-23T06:22:39;95512.25;;;4.72;100.00
11810;BME280;5962;41.566;23.734;2024-03-23T06:25:07;95516.91;;;4.89;100.00
11810;BME280;5962;41.566;23.734;2024-03-23T06:28:05;95520.53;;;5.01;100.00
11810;BME280;5962;41.566;23.734;2024-03-23T06:30:31;95521.16;;;5.10;100.00
11810;BME280;5962;41.566;23.734;2024-03-23T06:32:58;95520.94;;;5.11;100.00
11810;BME280;5962;41.566;23.734;2024-03-23T06:35:24;95515.88;;;5.29;100.00
11810;BME280;5962;41.566;23.734;2024-03-23T06:37:52;95510.22;;;5.32;100.00
11810;BME280;5962;41.566;23.734;2024-03-23T06:40:20;95511.41;;;5.36;100.00
11810;BME280;5962;41.566;23.734;2024-03-23T06:42:47;95508.59;;;5.44;100.00
11810;BME280;5962;41.566;23.734;2024-03-23T06:45:13;95506.97;;;5.50;99.43
11810;BME280;5962;41.566;23.734;2024-03-23T06:47:40;95515.25;;;5.53;99.09
11810;BME280;5962;41.566;23.734;2024-03-23T06:50:07;95508.56;;;5.57;100.00
11810;BME280;5962;41.566;23.734;2024-03-23T06:52:36;95488.75;;;5.61;99.97
11810;BME280;5962;41.566;23.734;2024-03-23T06:55:02;95495.97;;;5.91;97.07
11810;BME280;5962;41.566;23.734;2024-03-23T06:57:31;95497.31;;;6.07;95.04
11810;BME280;5962;41.566;23.734;2024-03-23T06:59:57;95497.84;;;6.22;94.13
11810;BME280;5962;41.566;23.734;2024-03-23T07:02:24;95489.53;;;6.25;94.25
11810;BME280;5962;41.566;23.734;2024-03-23T07:04:50;95492.97;;;6.25;94.50
11810;BME280;5962;41.566;23.734;2024-03-23T07:07:17;95486.69;;;6.26;93.96
11810;BME280;5962;41.566;23.734;2024-03-23T07:09:43;95489.09;;;6.34;95.59
11810;BME280;5962;41.566;23.734;2024-03-23T07:12:10;95488.25;;;6.34;95.35
11810;BME280;5962;41.566;23.734;2024-03-23T07:14:38;95489.38;;;6.51;92.38
11810;BME280;5962;41.566;23.734;2024-03-23T07:17:05;95493.03;;;6.50;92.48
11810;BME280;5962;41.566;23.734;2024-03-23T07:19:30;95490.13;;;6.57;89.51
11810;BME280;5962;41.566;23.734;2024-03-23T07:21:57;95491.28;;;6.68;88.90
11810;BME280;5962;41.566;23.734;2024-03-23T07:24:23;95497.34;;;6.75;89.28
11810;BME280;5962;41.566;23.734;2024-03-23T07:26:50;95487.97;;;6.79;88.57
11810;BME280;5962;41.566;23.734;2024-03-23T07:29:19;95491.16;;;6.87;86.51
11810;BME280;5962;41.566;23.734;2024-03-23T07:31:48;95484.13;;;6.81;86.21
11810;BME280;5962;41.566;23.734;2024-03-23T07:34:14;95487.31;;;6.90;85.96
11810;BME280;5962;41.566;23.734;2024-03-23T07:36:41;95484.63;;;6.96;85.60
11810;BME280;5962;41.566;23.734;2024-03-23T07:39:07;95485.31;;;7.10;83.88
11810;BME280;5962;41.566;23.734;2024-03-23T07:41:34;95474.34;;;7.13;84.66
11810;BME280;5962;41.566;23.734;2024-03-23T07:44:01;95473.81;;;7.29;83.93
11810;BME280;5962;41.566;23.734;2024-03-23T07:46:28;95478.91;;;7.24;84.53
11810;BME280;5962;41.566;23.734;2024-03-23T07:48:55;95466.63;;;7.36;83.47
11810;BME280;5962;41.566;23.734;2024-03-23T07:51:22;95472.41;;;7.44;83.35
11810;BME280;5962;41.566;23.734;2024-03-23T07:53:49;95469.50;;;7.52;83.38
11810;BME280;5962;41.566;23.734;2024-03-23T07:56:16;95459.03;;;7.63;84.03
11810;BME280;5962;41.566;23.734;2024-03-23T07:58:43;95454.44;;;7.77;84.59
11810;BME280;5962;41.566;23.734;2024-03-23T08:01:11;95461.44;;;7.83;85.12
11810;BME280;5962;41.566;23.734;2024-03-23T08:03:38;95452.50;;;8.02;83.19
11810;BME280;5962;41.566;23.734;2024-03-23T08:06:11;95457.63;;;8.15;80.83
11810;BME280;5962;41.566;23.734;2024-03-23T08:08:38;95454.97;;;8.15;80.25
11810;BME280;5962;41.566;23.734;2024-03-23T08:11:05;95446.06;;;8.16;81.10
11810;BME280;5962;41.566;23.734;2024-03-23T08:13:32;95438.41;;;8.26;80.29
11810;BME280;5962;41.566;23.734;2024-03-23T08:16:00;95434.06;;;8.31;79.79
11810;BME280;5962;41.566;23.734;2024-03-23T08:18:27;95438.25;;;8.39;79.88
11810;BME280;5962;41.566;23.734;2024-03-23T08:20:57;95431.28;;;8.55;78.14
11810;BME280;5962;41.566;23.734;2024-03-23T08:23:25;95428.91;;;8.65;78.40
11810;BME280;5962;41.566;23.734;2024-03-23T08:25:54;95429.59;;;8.72;78.10
11810;BME280;5962;41.566;23.734;2024-03-23T08:28:22;95407.09;;;8.70;76.70
11810;BME280;5962;41.566;23.734;2024-03-23T08:30:49;95424.81;;;8.92;76.76
11810;BME280;5962;41.566;23.734;2024-03-23T08:33:16;95416.22;;;9.08;76.24
11810;BME280;5962;41.566;23.734;2024-03-23T08:35:53;95418.41;;;9.11;76.37
11810;BME280;5962;41.566;23.734;2024-03-23T08:38:19;95416.31;;;9.25;74.96
11810;BME280;5962;41.566;23.734;2024-03-23T08:40:47;95415.28;;;9.26;75.12
11810;BME280;5962;41.566;23.734;2024-03-23T08:43:13;95409.56;;;9.29;74.21
11810;BME280;5962;41.566;23.734;2024-03-23T08:45:40;95396.31;;;9.40;74.05
11810;BME280;5962;41.566;23.734;2024-03-23T08:48:07;95401.47;;;9.58;73.13
11810;BME280;5962;41.566;23.734;2024-03-23T08:50:35;95392.50;;;9.59;72.64
11810;BME280;5962;41.566;23.734;2024-03-23T08:53:00;95389.84;;;9.70;71.45
11810;BME280;5962;41.566;23.734;2024-03-23T08:55:28;95384.19;;;9.78;71.06
11810;BME280;5962;41.566;23.734;2024-03-23T08:57:56;95374.47;;;9.95;70.18
11810;BME280;5962;41.566;23.734;2024-03-23T09:00:23;95365.84;;;9.88;70.96
11810;BME280;5962;41.566;23.734;2024-03-23T09:02:49;95370.22;;;9.94;70.98
11810;BME280;5962;41.566;23.734;2024-03-23T09:05:16;95360.09;;;10.03;71.47
11810;BME280;5962;41.566;23.734;2024-03-23T09:07:42;95350.16;;;10.10;70.72
11810;BME280;5962;41.566;23.734;2024-03-23T09:10:09;95340.41;;;10.27;69.76
11810;BME280;5962;41.566;23.734;2024-03-23T09:12:35;95348.91;;;10.29;69.29
11810;BME280;5962;41.566;23.734;2024-03-23T09:15:04;95341.94;;;10.39;68.62
11810;BME280;5962;41.566;23.734;2024-03-23T09:17:30;95340.75;;;10.46;67.71
11810;BME280;5962;41.566;23.734;2024-03-23T09:19:57;95332.47;;;10.43;68.24
11810;BME280;5962;41.566;23.734;2024-03-23T09:22:23;95321.81;;;10.54;67.70
11810;BME280;5962;41.566;23.734;2024-03-23T09:24:50;95318.53;;;10.64;67.10
11810;BME280;5962;41.566;23.734;2024-03-23T09:27:16;95318.38;;;10.70;66.35
11810;BME280;5962;41.566;23.734;2024-03-23T09:29:43;95316.91;;;10.79;64.87
11810;BME280;5962;41.566;23.734;2024-03-23T09:32:11;95313.41;;;10.74;65.42
11810;BME280;5962;41.566;23.734;2024-03-23T09:34:38;95300.84;;;10.86;65.65
11810;BME280;5962;41.566;23.734;2024-03-23T09:37:04;95305.25;;;10.97;65.40
11810;BME280;5962;41.566;23.734;2024-03-23T09:39:31;95299.72;;;10.98;65.15
11810;BME280;5962;41.566;23.734;2024-03-23T09:41:58;95294.03;;;10.90;65.12
11810;BME280;5962;41.566;23.734;2024-03-23T09:44:25;95288.94;;;11.05;65.14
11810;BME280;5962;41.566;23.734;2024-03-23T09:46:51;95290.69;;;11.16;64.45
11810;BME280;5962;41.566;23.734;2024-03-23T09:49:20;95278.88;;;11.07;65.42
11810;BME280;5962;41.566;23.734;2024-03-23T09:51:46;95280.47;;;11.08;65.39
11810;BME280;5962;41.566;23.734;2024-03-23T09:54:13;95276.63;;;11.15;65.67
11810;BME280;5962;41.566;23.734;2024-03-23T09:56:39;95264.22;;;11.21;65.76
11810;BME280;5962;41.566;23.734;2024-03-23T09:59:06;95258.72;;;11.27;65.55
11810;BME280;5962;41.566;23.734;2024-03-23T10:01:32;95262.22;;;11.49;63.74
11810;BME280;5962;41.566;23.734;2024-03-23T10:03:59;95252.72;;;11.53;63.06
11810;BME280;5962;41.566;23.734;2024-03-23T10:06:27;95255.38;;;11.53;63.58
11810;BME280;5962;41.566;23.734;2024-03-23T10:08:54;95250.22;;;11.46;63.41
11810;BME280;5962;41.566;23.734;2024-03-23T10:11:20;95240.91;;;11.44;63.66
11810;BME280;5962;41.566;23.734;2024-03-23T10:13:48;95238.03;;;11.45;64.04
11810;BME280;5962;41.566;23.734;2024-03-23T10:16:21;95230.38;;;11.70;63.34
11810;BME280;5962;41.566;23.734;2024-03-23T10:18:49;95235.44;;;11.72;62.91
11810;BME280;5962;41.566;23.734;2024-03-23T10:21:16;95231.47;;;11.74;62.97
11810;BME280;5962;41.566;23.734;2024-03-23T10:23:44;95228.88;;;11.79;62.22
11810;BME280;5962;41.566;23.734;2024-03-23T10:26:16;95216.84;;;11.98;60.32
11810;BME280;5962;41.566;23.734;2024-03-23T10:28:53;95222.19;;;12.03;59.02
11810;BME280;5962;41.566;23.734;2024-03-23T10:31:20;95208.91;;;11.98;58.44
11810;BME280;5962;41.566;23.734;2024-03-23T10:33:47;95205.47;;;12.03;57.61
11810;BME280;5962;41.566;23.734;2024-03-23T10:36:14;95204.28;;;12.20;57.27
11810;BME280;5962;41.566;23.734;2024-03-23T10:38:42;95199.78;;;12.20;57.04
11810;BME280;5962;41.566;23.734;2024-03-23T10:41:10;95194.72;;;12.19;58.31
11810;BME280;5962;41.566;23.734;2024-03-23T10:43:38;95192.91;;;12.24;57.32
11810;BME280;5962;41.566;23.734;2024-03-23T10:46:05;95185.72;;;12.20;57.81
11810;BME280;5962;41.566;23.734;2024-03-23T10:48:32;95178.84;;;12.24;58.25
11810;BME280;5962;41.566;23.734;2024-03-23T10:50:58;95175.03;;;12.46;56.91
11810;BME280;5962;41.566;23.734;2024-03-23T10:53:26;95171.88;;;12.54;56.57
11810;BME280;5962;41.566;23.734;2024-03-23T10:55:54;95163.22;;;12.74;54.57
11810;BME280;5962;41.566;23.734;2024-03-23T10:58:26;95154.78;;;12.87;53.42
11810;BME280;5962;41.566;23.734;2024-03-23T11:00:53;95147.31;;;12.84;53.63
11810;BME280;5962;41.566;23.734;2024-03-23T11:03:31;95148.47;;;12.98;52.75
11810;BME280;5962;41.566;23.734;2024-03-23T11:05:57;95131.25;;;13.10;51.22
11810;BME280;5962;41.566;23.734;2024-03-23T11:08:34;95136.56;;;13.10;50.93
11810;BME280;5962;41.566;23.734;2024-03-23T11:11:19;95140.81;;;13.06;50.86
11810;BME280;5962;41.566;23.734;2024-03-23T11:13:49;95126.22;;;13.14;50.97
11810;BME280;5962;41.566;23.734;2024-03-23T11:16:17;95113.72;;;13.19;48.59
11810;BME280;5962;41.566;23.734;2024-03-23T11:18:44;95135.09;;;13.49;45.92
11810;BME280;5962;41.566;23.734;2024-03-23T11:21:10;95110.88;;;13.55;45.65
11810;BME280;5962;41.566;23.734;2024-03-23T11:23:38;95109.56;;;13.68;45.36
11810;BME280;5962;41.566;23.734;2024-03-23T11:26:07;95101.06;;;13.86;44.34
11810;BME280;5962;41.566;23.734;2024-03-23T11:28:34;95089.88;;;13.79;44.91
11810;BME280;5962;41.566;23.734;2024-03-23T11:31:09;95096.28;;;13.88;43.20
11810;BME280;5962;41.566;23.734;2024-03-23T11:33:36;95088.28;;;14.03;42.87
11810;BME280;5962;41.566;23.734;2024-03-23T11:36:02;95075.53;;;14.19;42.31
11810;BME280;5962;41.566;23.734;2024-03-23T11:38:36;95080.84;;;14.19;41.62
11810;BME280;5962;41.566;23.734;2024-03-23T11:41:02;95081.34;;;14.21;41.12
11810;BME280;5962;41.566;23.734;2024-03-23T11:43:29;95078.41;;;14.38;40.40
11810;BME280;5962;41.566;23.734;2024-03-23T11:45:55;95065.84;;;14.48;39.88
11810;BME280;5962;41.566;23.734;2024-03-23T11:48:25;95054.94;;;14.45;40.07
11810;BME280;5962;41.566;23.734;2024-03-23T11:50:54;95053.31;;;14.49;40.95
11810;BME280;5962;41.566;23.734;2024-03-23T11:53:23;95042.41;;;14.45;41.86
11810;BME280;5962;41.566;23.734;2024-03-23T11:55:51;95043.19;;;14.51;40.18
11810;BME280;5962;41.566;23.734;2024-03-23T11:58:19;95031.72;;;14.60;38.36
11810;BME280;5962;41.566;23.734;2024-03-23T12:00:51;95036.47;;;14.63;37.35
11810;BME280;5962;41.566;23.734;2024-03-23T12:03:19;95030.53;;;14.81;35.72
11810;BME280;5962;41.566;23.734;2024-03-23T12:05:49;95024.63;;;14.89;35.63
11810;BME280;5962;41.566;23.734;2024-03-23T12:08:20;95012.03;;;15.00;34.72
11810;BME280;5962;41.566;23.734;2024-03-23T12:10:48;95013.78;;;15.19;34.30
11810;BME280;5962;41.566;23.734;2024-03-23T12:13:17;95014.34;;;15.16;35.24
11810;BME280;5962;41.566;23.734;2024-03-23T12:15:44;95003.66;;;15.21;34.88
11810;BME280;5962;41.566;23.734;2024-03-23T12:18:11;94988.25;;;15.08;34.65
11810;BME280;5962;41.566;23.734;2024-03-23T12:20:38;94993.19;;;15.34;34.50
11810;BME280;5962;41.566;23.734;2024-03-23T12:23:08;95000.16;;;15.30;35.10
11810;BME280;5962;41.566;23.734;2024-03-23T12:25:35;94994.34;;;15.18;36.01
11810;BME280;5962;41.566;23.734;2024-03-23T12:28:02;94997.75;;;15.29;35.98
11810;BME280;5962;41.566;23.734;2024-03-23T12:30:28;94989.91;;;15.47;33.43
11810;BME280;5962;41.566;23.734;2024-03-23T12:32:55;94985.09;;;15.44;32.54
11810;BME280;5962;41.566;23.734;2024-03-23T12:35:22;94984.78;;;15.51;32.31
11810;BME280;5962;41.566;23.734;2024-03-23T12:37:49;94978.63;;;15.50;32.62
11810;BME280;5962;41.566;23.734;2024-03-23T12:40:16;94981.88;;;15.47;32.48
11810;BME280;5962;41.566;23.734;2024-03-23T12:42:43;94982.66;;;15.48;32.73
11810;BME280;5962;41.566;23.734;2024-03-23T12:45:09;94976.56;;;15.42;33.01
11810;BME280;5962;41.566;23.734;2024-03-23T12:47:36;94974.09;;;15.51;33.40
11810;BME280;5962;41.566;23.734;2024-03-23T12:50:03;94969.63;;;15.41;32.87
11810;BME280;5962;41.566;23.734;2024-03-23T12:52:31;94965.38;;;15.40;33.67
11810;BME280;5962;41.566;23.734;2024-03-23T12:54:57;94964.59;;;15.40;34.42
11810;BME280;5962;41.566;23.734;2024-03-23T12:57:26;94965.59;;;15.44;34.55
11810;BME280;5962;41.566;23.734;2024-03-23T12:59:52;94962.72;;;15.40;34.94
11810;BME280;5962;41.566;23.734;2024-03-23T13:02:19;94958.69;;;15.43;34.82
11810;BME280;5962;41.566;23.734;2024-03-23T13:04:49;94940.59;;;15.35;35.01
11810;BME280;5962;41.566;23.734;2024-03-23T13:07:16;94943.69;;;15.47;34.54
11810;BME280;5962;41.566;23.734;2024-03-23T13:09:42;94949.59;;;15.44;34.27
11810;BME280;5962;41.566;23.734;2024-03-23T13:12:09;94943.91;;;15.55;33.52
11810;BME280;5962;41.566;23.734;2024-03-23T13:14:37;94938.09;;;15.77;33.40
11810;BME280;5962;41.566;23.734;2024-03-23T13:17:04;94929.47;;;15.85;32.81
11810;BME280;5962;41.566;23.734;2024-03-23T13:19:30;94929.19;;;15.86;32.44
11810;BME280;5962;41.566;23.734;2024-03-23T13:21:57;94932.38;;;15.88;32.48
11810;BME280;5962;41.566;23.734;2024-03-23T13:24:24;94924.59;;;15.92;31.83
11810;BME280;5962;41.566;23.734;2024-03-23T13:26:51;94921.06;;;15.96;31.56
11810;BME280;5962;41.566;23.734;2024-03-23T13:29:18;94927.09;;;15.83;31.91
11810;BME280;5962;41.566;23.734;2024-03-23T13:31:46;94926.56;;;15.81;31.93
11810;BME280;5962;41.566;23.734;2024-03-23T13:34:13;94925.00;;;15.75;31.66
11810;BME280;5962;41.566;23.734;2024-03-23T13:36:40;94922.78;;;15.87;32.04
11810;BME280;5962;41.566;23.734;2024-03-23T13:39:07;94923.53;;;15.93;31.46
11810;BME280;5962;41.566;23.734;2024-03-23T13:41:38;94915.44;;;15.98;30.90
11810;BME280;5962;41.566;23.734;2024-03-23T13:44:05;94920.25;;;15.96;31.10
11810;BME280;5962;41.566;23.734;2024-03-23T13:46:32;94922.16;;;15.95;30.72
11810;BME280;5962;41.566;23.734;2024-03-23T13:48:59;94921.06;;;15.96;30.55
11810;BME280;5962;41.566;23.734;2024-03-23T13:51:27;94909.88;;;15.94;30.67
11810;BME280;5962;41.566;23.734;2024-03-23T13:53:53;94919.47;;;15.95;30.75
11810;BME280;5962;41.566;23.734;2024-03-23T13:56:22;94917.03;;;15.99;31.07